Time;durP1;ratioP1;P1;durP2;ratioP2;P2;SDS_P1;SDS_P2;PMS_P1;PMS_P2;Temp;Humidity;BMP_temperature;BMP_pressure;BME280_temperature;BME280_humidity;BME280_pressure;Samples;Min_cycle;Max_cycle;Signal;HPM_P1;HPM_P2
2022/04/17 00:00:13;;;;;;;9.00;8.20;;;;;;;12.25;50.96;94755.28;4965805;28;20218;-59
2022/04/17 00:02:39;;;;;;;9.15;8.35;;;;;;;12.27;50.69;94755.94;4960674;28;20199;-59
2022/04/17 00:05:06;;;;;;;9.27;7.80;;;;;;;12.27;50.95;94745.38;4973706;28;20235;-60
2022/04/17 00:07:32;;;;;;;8.95;8.20;;;;;;;12.32;50.58;94737.78;4956559;28;20243;-59
2022/04/17 00:09:58;;;;;;;9.18;8.38;;;;;;;12.31;50.97;94744.03;4951655;28;20217;-59
2022/04/17 00:12:24;;;;;;;9.55;8.65;;;;;;;12.30;50.58;94752.97;4967243;28;20223;-60
2022/04/17 00:14:50;;;;;;;9.95;8.93;;;;;;;12.22;51.42;94760.06;4981237;28;20209;-59
2022/04/17 00:17:16;;;;;;;10.48;9.43;;;;;;;12.29;51.27;94747.84;4984343;28;20306;-60
2022/04/17 00:19:41;;;;;;;10.98;9.98;;;;;;;12.23;51.41;94738.78;4972874;28;20231;-60
2022/04/17 00:22:07;;;;;;;11.63;10.63;;;;;;;12.10;51.83;94749.03;4977752;28;20372;-60
2022/04/17 00:24:33;;;;;;;11.43;10.43;;;;;;;12.11;51.90;94742.78;4974680;28;20230;-59
2022/04/17 00:27:00;;;;;;;11.50;10.50;;;;;;;12.09;52.14;94734.22;4960644;28;20244;-59
2022/04/17 00:29:27;;;;;;;11.65;10.48;;;;;;;12.11;52.12;94726.97;4953625;28;20244;-59
2022/04/17 00:31:53;;;;;;;11.10;10.15;;;;;;;12.02;52.28;94712.97;4941394;28;20276;-60
2022/04/17 00:34:19;;;;;;;12.07;10.98;;;;;;;12.09;52.39;94710.50;4948045;28;20220;-60
2022/04/17 00:36:45;;;;;;;11.57;10.30;;;;;;;12.04;52.59;94716.28;4946069;28;20268;-59
2022/04/17 00:39:12;;;;;;;11.05;9.95;;;;;;;11.93;53.20;94719.25;4945036;28;20200;-60
2022/04/17 00:41:38;;;;;;;11.38;10.32;;;;;;;11.82;53.54;94719.59;4940248;28;20220;-59
2022/04/17 00:44:10;;;;;;;10.90;10.00;;;;;;;11.83;53.58;94722.03;4939337;28;20249;-59
2022/04/17 00:46:35;;;;;;;10.60;9.60;;;;;;;11.74;53.80;94723.03;4940910;28;20459;-59
2022/04/17 00:49:01;;;;;;;10.40;9.45;;;;;;;11.78;53.71;94724.34;4952646;28;20232;-59
2022/04/17 00:51:26;;;;;;;10.57;9.48;;;;;;;11.69;53.96;94717.44;4947150;28;20212;-59
2022/04/17 00:53:53;;;;;;;11.05;10.02;;;;;;;11.73;53.93;94712.66;4942685;28;20201;-60
2022/04/17 00:56:20;;;;;;;10.75;9.85;;;;;;;11.60;54.16;94707.88;4951495;28;20229;-59
2022/04/17 00:58:46;;;;;;;10.13;9.23;;;;;;;11.59;54.33;94712.34;4946819;28;20224;-60
2022/04/17 01:01:11;;;;;;;11.30;10.02;;;;;;;11.48;54.46;94700.31;4944089;28;20233;-59
2022/04/17 01:03:37;;;;;;;10.30;9.40;;;;;;;11.37;54.70;94721.72;4952000;28;20229;-59
2022/04/17 01:06:03;;;;;;;10.50;9.50;;;;;;;11.37;54.44;94702.47;4946672;28;20214;-60
2022/04/17 01:08:29;;;;;;;10.45;9.48;;;;;;;11.37;54.78;94697.22;4958708;28;20225;-60
2022/04/17 01:10:54;;;;;;;10.15;9.18;;;;;;;11.31;54.48;94697.88;4955717;28;20286;-60
2022/04/17 01:13:20;;;;;;;10.13;9.25;;;;;;;11.27;54.74;94710.53;4976631;28;20224;-60
2022/04/17 01:15:46;;;;;;;10.80;9.90;;;;;;;11.32;54.59;94695.06;4961236;28;20270;-60
2022/04/17 01:18:11;;;;;;;10.15;9.25;;;;;;;11.28;54.92;94693.75;4965055;28;20203;-60
2022/04/17 01:20:38;;;;;;;9.43;8.63;;;;;;;11.32;54.79;94686.34;4963334;28;20204;-59
2022/04/17 01:28:31;;;;;;;10.80;9.90;;;;;;;11.27;54.44;94692.91;4957095;28;20239;-60
2022/04/17 01:30:57;;;;;;;9.75;8.77;;;;;;;11.27;54.49;94703.44;4966458;28;20224;-60
2022/04/17 01:33:23;;;;;;;9.57;8.77;;;;;;;11.27;54.16;94700.00;4972997;28;20219;-59
2022/04/17 01:35:48;;;;;;;10.50;9.48;;;;;;;11.31;54.28;94692.63;4974783;28;20932;-59
2022/04/17 01:38:14;;;;;;;9.75;8.95;;;;;;;11.14;54.70;94711.00;4966513;28;20700;-60
2022/04/17 01:40:40;;;;;;;9.73;8.95;;;;;;;11.05;55.06;94706.72;4968073;28;20224;-59
2022/04/17 01:43:12;;;;;;;9.40;8.57;;;;;;;11.16;54.69;94700.31;4976326;28;20224;-59
2022/04/17 01:45:38;;;;;;;9.82;8.88;;;;;;;11.14;54.52;94702.28;4969964;28;20224;-59
2022/04/17 01:48:04;;;;;;;9.02;8.32;;;;;;;11.15;54.62;94696.88;4979283;28;20207;-59
2022/04/17 01:50:30;;;;;;;9.52;8.73;;;;;;;11.07;54.63;94696.88;4984935;28;20266;-59
2022/04/17 01:53:00;;;;;;;8.95;8.15;;;;;;;11.08;55.02;94692.41;4968653;28;21244;-60
2022/04/17 01:55:27;;;;;;;9.60;8.80;;;;;;;11.14;54.63;94686.50;4978763;28;20314;-59
2022/04/17 01:57:53;;;;;;;9.07;8.30;;;;;;;11.08;54.73;94702.94;4970771;28;20235;-60
2022/04/17 02:00:18;;;;;;;9.77;8.88;;;;;;;10.95;55.22;94696.34;4968908;28;20203;-59
2022/04/17 02:02:44;;;;;;;9.02;8.10;;;;;;;10.94;55.50;94692.06;4964781;28;20226;-59
2022/04/17 02:05:09;;;;;;;9.07;8.25;;;;;;;11.05;54.93;94696.19;4967698;28;20224;-60
2022/04/17 02:07:36;;;;;;;8.52;7.72;;;;;;;11.03;55.21;94703.41;4977709;28;20228;-60
2022/04/17 02:10:05;;;;;;;9.05;8.35;;;;;;;11.01;55.25;94700.97;4968296;28;20262;-60
2022/04/17 02:12:31;;;;;;;10.23;9.25;;;;;;;11.04;55.01;94692.75;4982141;28;20258;-60
2022/04/17 02:14:57;;;;;;;10.43;9.38;;;;;;;11.02;55.25;94684.19;4965756;28;20232;-59
2022/04/17 02:17:23;;;;;;;9.85;8.95;;;;;;;11.01;55.27;94677.28;4976275;28;20251;-59
2022/04/17 02:19:48;;;;;;;10.77;8.70;;;;;;;10.91;55.77;94673.97;4971030;28;20228;-60
2022/04/17 02:22:13;;;;;;;9.98;8.93;;;;;;;10.88;56.53;94670.84;4969477;28;20228;-59
2022/04/17 02:24:39;;;;;;;9.87;8.97;;;;;;;10.87;56.54;94664.75;4963977;28;20262;-59
2022/04/17 02:27:04;;;;;;;9.43;8.63;;;;;;;10.95;56.33;94666.59;4974210;28;20252;-59
2022/04/17 02:29:30;;;;;;;9.65;8.75;;;;;;;10.87;56.25;94662.13;4976745;28;20287;-59
2022/04/17 02:31:55;;;;;;;10.00;9.15;;;;;;;10.87;56.57;94666.56;4968125;28;20339;-60
2022/04/17 02:34:21;;;;;;;9.27;8.48;;;;;;;10.88;56.43;94663.78;4970270;28;20304;-59
2022/04/17 02:36:46;;;;;;;10.02;9.10;;;;;;;10.81;56.73;94668.03;4935523;28;20229;-59
2022/04/17 02:39:12;;;;;;;9.98;9.18;;;;;;;10.87;56.44;94666.56;4962329;28;20298;-59
2022/04/17 02:41:37;;;;;;;10.20;9.20;;;;;;;10.81;56.46;94658.34;4979279;28;20208;-60
2022/04/17 02:44:05;;;;;;;10.40;9.38;;;;;;;10.81;56.80;94647.00;4966413;28;20231;-59
2022/04/17 02:49:15;;;;;;;10.32;9.32;;;;;;;10.83;56.92;94660.81;4963690;28;20263;-60
2022/04/17 02:51:40;;;;;;;10.02;9.10;;;;;;;10.80;57.05;94659.34;4977067;28;20315;-59
2022/04/17 02:54:06;;;;;;;13.00;11.70;;;;;;;10.83;57.23;94663.44;4962957;28;20212;-59
2022/04/17 02:56:31;;;;;;;16.00;14.60;;;;;;;10.80;57.25;94656.72;4966475;28;20235;-58
2022/04/17 02:58:57;;;;;;;18.65;16.90;;;;;;;10.82;57.26;94653.91;4960120;28;20252;-59
2022/04/17 03:06:51;;;;;;;20.98;18.98;;;;;;;10.69;58.09;94662.28;4948641;28;20231;-59
2022/04/17 03:09:18;;;;;;;20.48;18.42;;;;;;;10.65;58.34;94654.88;4948084;28;20217;-59
2022/04/17 03:11:43;;;;;;;18.70;17.00;;;;;;;10.74;58.05;94656.50;4948973;28;20209;-59
2022/04/17 03:14:09;;;;;;;17.77;16.10;;;;;;;10.79;58.07;94656.84;4946228;28;20240;-59
2022/04/17 03:16:35;;;;;;;15.70;14.30;;;;;;;10.67;57.98;94643.22;4946469;28;20231;-59
2022/04/17 03:19:00;;;;;;;14.70;13.40;;;;;;;10.54;58.63;94638.41;4943945;28;20228;-59
2022/04/17 03:21:26;;;;;;;14.07;12.70;;;;;;;10.59;58.68;94661.59;4949141;28;20247;-59
2022/04/17 03:23:51;;;;;;;13.15;11.93;;;;;;;10.54;58.63;94656.81;4963987;28;20209;-59
2022/04/17 03:26:17;;;;;;;13.43;12.15;;;;;;;10.55;58.64;94663.69;4955861;28;20234;-59
2022/04/17 03:28:42;;;;;;;12.80;11.70;;;;;;;10.48;58.58;94649.56;4949636;28;20245;-59
2022/04/17 03:31:07;;;;;;;11.25;10.10;;;;;;;10.49;58.76;94650.38;4944394;28;20229;-59
2022/04/17 03:33:33;;;;;;;11.48;10.48;;;;;;;10.58;58.81;94652.88;4957117;28;20236;-59
2022/04/17 03:35:58;;;;;;;11.15;10.10;;;;;;;10.64;58.51;94664.56;4942724;28;20213;-59
2022/04/17 03:38:24;;;;;;;10.85;9.75;;;;;;;10.65;58.63;94658.31;4946309;28;20236;-59
2022/04/17 03:40:49;;;;;;;10.63;9.60;;;;;;;10.65;58.93;94657.50;4950742;28;20274;-60
2022/04/17 03:43:15;;;;;;;10.00;9.10;;;;;;;10.67;59.01;94655.53;4947805;28;20235;-60
2022/04/17 03:45:40;;;;;;;11.88;9.85;;;;;;;10.56;59.78;94662.72;4949341;28;20233;-60
2022/04/17 03:48:06;;;;;;;10.60;9.52;;;;;;;10.59;60.12;94672.94;4944865;28;20231;-60
2022/04/17 03:50:32;;;;;;;10.88;9.98;;;;;;;10.64;60.05;94676.88;4941730;28;20232;-60
2022/04/17 03:52:57;;;;;;;11.68;10.48;;;;;;;10.54;60.52;94677.84;4942239;28;20254;-60
2022/04/17 03:55:23;;;;;;;11.45;10.30;;;;;;;10.50;61.37;94684.38;4942249;28;20233;-68
2022/04/17 03:57:49;;;;;;;11.50;10.40;;;;;;;10.50;62.06;94673.88;4940579;28;20404;-68
2022/04/17 04:00:16;;;;;;;10.65;9.80;;;;;;;10.43;62.02;94669.44;4963310;28;20295;-63
2022/04/17 04:02:42;;;;;;;10.93;9.93;;;;;;;10.43;62.38;94680.75;4948510;28;20209;-63
2022/04/17 04:05:15;;;;;;;11.23;10.23;;;;;;;10.45;62.51;94676.19;4947758;28;20283;-63
2022/04/17 04:07:40;;;;;;;11.35;10.15;;;;;;;10.49;62.65;94677.50;4931618;28;20231;-62
2022/04/17 04:10:08;;;;;;;10.77;9.77;;;;;;;10.49;63.16;94666.97;4938331;28;20229;-62
2022/04/17 04:12:34;;;;;;;11.23;10.13;;;;;;;10.45;63.75;94663.03;4941606;28;20240;-59
2022/04/17 04:15:00;;;;;;;11.57;10.57;;;;;;;10.40;63.92;94661.84;4942698;28;20209;-58
2022/04/17 04:17:25;;;;;;;10.30;9.30;;;;;;;10.30;64.79;94664.63;4947327;28;20241;-63
2022/04/17 04:19:51;;;;;;;10.70;9.77;;;;;;;10.37;64.29;94676.97;4950776;28;20236;-63
2022/04/17 04:22:17;;;;;;;11.13;10.13;;;;;;;10.39;64.68;94674.16;4946235;28;20221;-59
2022/04/17 04:24:42;;;;;;;11.30;10.30;;;;;;;10.38;65.05;94665.47;4947142;28;20220;-62
2022/04/17 04:29:52;;;;;;;11.57;10.57;;;;;;;10.43;66.37;94678.13;4967446;28;20239;-64
2022/04/17 04:32:20;;;;;;;12.48;11.23;;;;;;;10.42;67.95;94681.72;4959022;28;20233;-67
2022/04/17 04:34:46;;;;;;;12.35;11.20;;;;;;;10.32;67.67;94673.16;4946292;28;20233;-65
2022/04/17 04:37:11;;;;;;;12.60;11.40;;;;;;;10.33;68.16;94678.25;4949124;28;20224;-65
2022/04/17 04:39:38;;;;;;;13.63;12.43;;;;;;;10.40;68.84;94673.19;4941546;28;20220;-61
2022/04/17 04:42:07;;;;;;;13.35;12.00;;;;;;;10.35;68.10;94675.47;4946425;28;20264;-59
2022/04/17 04:44:33;;;;;;;12.57;11.40;;;;;;;10.19;68.65;94667.50;4957292;28;20779;-58
2022/04/17 04:46:58;;;;;;;10.30;9.40;;;;;;;10.18;68.97;94669.28;4942271;28;20236;-62
2022/04/17 04:49:30;;;;;;;10.27;9.38;;;;;;;10.23;68.89;94671.44;4949738;28;20252;-61
2022/04/17 04:52:06;;;;;;;11.05;10.10;;;;;;;10.28;69.09;94671.84;4962033;28;20231;-62
2022/04/17 04:54:32;;;;;;;10.07;9.18;;;;;;;10.14;68.65;94668.78;4963407;28;20326;-62
2022/04/17 04:56:58;;;;;;;9.65;8.80;;;;;;;10.02;68.78;94670.03;4961097;28;20215;-61
2022/04/17 04:59:24;;;;;;;10.38;9.45;;;;;;;10.02;69.32;94656.91;4959801;28;20221;-68
2022/04/17 05:01:50;;;;;;;10.35;9.52;;;;;;;10.11;69.79;94661.22;4974225;28;20243;-62
2022/04/17 05:04:20;;;;;;;10.48;9.48;;;;;;;10.03;68.81;94650.69;4977013;28;20239;-62
2022/04/17 05:06:45;;;;;;;10.80;9.90;;;;;;;10.14;69.05;94665.34;4955624;28;20235;-57
2022/04/17 05:09:11;;;;;;;10.60;9.68;;;;;;;10.10;69.38;94662.22;4975136;28;20215;-62
2022/04/17 05:11:38;;;;;;;10.50;9.50;;;;;;;10.11;69.35;94660.41;4991001;28;20228;-62
2022/04/17 05:14:06;;;;;;;19.77;10.97;;;;;;;10.08;69.97;94658.09;4970092;28;20233;-62
2022/04/17 05:16:31;;;;;;;9.43;8.57;;;;;;;10.12;68.92;94662.84;4961722;28;20232;-58
2022/04/17 05:19:19;;;;;;;9.98;9.15;;;;;;;10.14;69.27;94665.34;4961969;28;20240;-60
2022/04/17 05:21:45;;;;;;;10.52;9.30;;;;;;;10.13;69.61;94661.06;4943646;28;20307;-69
2022/04/17 05:24:10;;;;;;;9.13;8.35;;;;;;;10.08;69.60;94663.34;4967767;28;20239;-65
2022/04/17 05:26:35;;;;;;;10.43;9.43;;;;;;;10.15;69.34;94669.59;4954196;28;20225;-65
2022/04/17 05:29:02;;;;;;;10.23;9.23;;;;;;;10.18;69.10;94665.84;4966790;28;20220;-62
2022/04/17 05:31:28;;;;;;;10.68;9.68;;;;;;;10.11;69.54;94663.84;4985521;28;20788;-62
2022/04/17 05:33:53;;;;;;;11.68;10.60;;;;;;;10.09;70.09;94660.56;4982440;28;20232;-66
2022/04/17 05:36:19;;;;;;;11.30;10.20;;;;;;;10.14;69.74;94658.28;4970980;28;20204;-67
2022/04/17 05:38:44;;;;;;;11.68;10.57;;;;;;;10.27;69.40;94667.53;4966529;28;20212;-62
2022/04/17 05:41:10;;;;;;;12.98;11.43;;;;;;;10.33;70.37;94664.28;4968287;28;20228;-66
2022/04/17 05:43:38;;;;;;;13.18;11.77;;;;;;;10.29;70.29;94665.59;4969204;28;20225;-63
2022/04/17 05:46:04;;;;;;;11.90;10.82;;;;;;;10.34;69.79;94663.31;4969862;28;20235;-63
2022/04/17 05:48:29;;;;;;;13.00;8.88;;;;;;;10.24;68.94;94654.72;4953250;28;20204;-66
2022/04/17 05:50:55;;;;;;;9.87;8.97;;;;;;;10.30;68.59;94668.06;4964736;28;20204;-60
2022/04/17 05:53:21;;;;;;;9.40;8.60;;;;;;;10.38;68.58;94664.66;4980244;28;20321;-60
2022/04/17 05:55:47;;;;;;;8.90;8.03;;;;;;;10.30;68.84;94667.25;4970573;28;20235;-62
2022/04/17 05:58:12;;;;;;;8.33;7.60;;;;;;;10.14;68.95;94660.91;4962689;28;20250;-58
2022/04/17 06:00:42;;;;;;;9.02;8.32;;;;;;;10.16;68.64;94661.56;4976845;28;20234;-59
2022/04/17 06:03:07;;;;;;;10.27;9.35;;;;;;;10.22;69.18;94652.25;4963575;28;20213;-58
2022/04/17 06:05:33;;;;;;;10.00;9.20;;;;;;;10.13;69.60;94653.16;4965865;28;20231;-59
2022/04/17 06:07:58;;;;;;;9.52;8.63;;;;;;;10.23;69.96;94655.69;4972417;28;20241;-59
2022/04/17 06:10:24;;;;;;;9.40;8.60;;;;;;;10.18;69.47;94647.44;4971839;28;20233;-59
2022/04/17 06:12:49;;;;;;;11.45;10.35;;;;;;;10.13;70.83;94642.66;4968791;28;20251;-66
2022/04/17 06:15:15;;;;;;;9.13;8.35;;;;;;;10.20;69.46;94648.13;4965736;28;20211;-59
2022/04/17 06:17:42;;;;;;;8.55;7.85;;;;;;;10.23;69.63;94642.53;4971882;28;20207;-60
2022/04/17 06:20:10;;;;;;;8.48;7.78;;;;;;;10.18;69.83;94645.63;4964906;28;20233;-59
2022/04/17 06:22:36;;;;;;;8.38;7.68;;;;;;;10.18;69.55;94639.56;4968527;28;20371;-63
2022/04/17 06:25:07;;;;;;;8.50;7.80;;;;;;;10.22;69.68;94649.59;4964967;28;20251;-63
2022/04/17 06:27:46;;;;;;;9.10;8.38;;;;;;;10.24;69.28;94636.31;4977594;28;20295;-64
2022/04/17 06:30:21;;;;;;;9.68;8.88;;;;;;;10.19;69.53;94644.69;4981578;28;20299;-64
2022/04/17 06:32:48;;;;;;;9.00;8.30;;;;;;;10.17;69.65;94644.00;4971175;28;20212;-63
2022/04/17 06:35:15;;;;;;;9.85;8.95;;;;;;;10.15;69.93;94649.41;4969033;28;20228;-63
2022/04/17 06:37:53;;;;;;;9.70;8.80;;;;;;;10.18;70.69;94642.19;4969377;28;20228;-63
2022/04/17 06:40:25;;;;;;;10.00;8.90;;;;;;;10.29;70.00;94649.81;4962288;28;20224;-64
2022/04/17 06:42:53;;;;;;;9.68;8.77;;;;;;;10.31;68.82;94648.69;4975097;28;20231;-64
2022/04/17 06:45:19;;;;;;;8.88;8.07;;;;;;;10.38;68.53;94643.63;4970776;28;20267;-64
2022/04/17 06:47:44;;;;;;;8.82;8.05;;;;;;;10.33;68.84;94645.91;4963010;28;20199;-59
2022/04/17 06:50:10;;;;;;;8.95;8.25;;;;;;;10.28;69.58;94651.63;4971065;28;20232;-71
2022/04/17 06:52:36;;;;;;;9.52;8.73;;;;;;;10.37;69.32;94653.31;4983085;28;20219;-73
2022/04/17 06:55:03;;;;;;;9.38;8.23;;;;;;;10.32;69.31;94646.91;4972131;28;20231;-73
2022/04/17 06:57:33;;;;;;;9.20;8.32;;;;;;;10.31;69.79;94647.84;4970396;28;20214;-71
2022/04/17 07:00:07;;;;;;;9.70;8.85;;;;;;;10.30;70.06;94651.47;4959064;28;20202;-70
2022/04/17 07:02:32;;;;;;;9.30;8.43;;;;;;;10.33;70.13;94643.28;4978679;28;20228;-67
2022/04/17 07:04:58;;;;;;;9.77;8.98;;;;;;;10.20;70.98;94650.75;4966570;28;20224;-61
2022/04/17 07:07:23;;;;;;;9.32;8.52;;;;;;;10.31;71.18;94647.84;4967771;28;20224;-59
2022/04/17 07:09:49;;;;;;;7.80;7.15;;;;;;;10.31;69.84;94650.50;4980927;28;20232;-58
2022/04/17 07:12:16;;;;;;;7.72;7.03;;;;;;;10.46;69.77;94648.09;4971484;28;20216;-58
2022/04/17 07:14:41;;;;;;;8.18;7.40;;;;;;;10.45;69.32;94659.56;4971137;28;20266;-59
2022/04/17 07:17:07;;;;;;;7.97;7.30;;;;;;;10.46;68.46;94655.97;4965988;28;20263;-60
2022/04/17 07:19:32;;;;;;;7.82;7.22;;;;;;;10.51;68.29;94654.50;4960052;28;20249;-60
2022/04/17 07:21:58;;;;;;;8.30;7.60;;;;;;;10.53;68.96;94655.16;4949533;28;20233;-60
2022/04/17 07:24:24;;;;;;;9.48;8.57;;;;;;;10.47;68.75;94647.91;4960985;28;20211;-59
2022/04/17 07:26:53;;;;;;;8.30;7.60;;;;;;;10.48;68.58;94659.28;4968143;28;20329;-59
2022/04/17 07:29:26;;;;;;;9.05;8.15;;;;;;;10.53;68.67;94662.22;4982947;28;20226;-57
2022/04/17 07:31:53;;;;;;;8.75;7.95;;;;;;;10.49;69.00;94653.84;4969320;28;20219;-58
2022/04/17 07:34:20;;;;;;;8.02;7.35;;;;;;;10.50;69.16;94660.72;4977623;28;20247;-58
2022/04/17 07:36:54;;;;;;;8.48;7.75;;;;;;;10.44;69.07;94653.50;4975409;28;20243;-58
2022/04/17 07:39:19;;;;;;;8.07;7.38;;;;;;;10.40;69.25;94657.44;4964002;28;20200;-58
2022/04/17 07:41:48;;;;;;;8.60;7.90;;;;;;;10.42;70.02;94660.69;4964022;28;20267;-59
2022/04/17 07:44:14;;;;;;;8.75;7.85;;;;;;;10.42;70.04;94660.69;4971525;28;20259;-58
2022/04/17 07:46:42;;;;;;;8.35;7.63;;;;;;;10.50;70.46;94658.09;4977779;28;20283;-59
2022/04/17 07:49:09;;;;;;;6.73;6.23;;;;;;;10.58;69.61;94654.66;4969138;28;20239;-59
2022/04/17 07:51:35;;;;;;;7.75;7.13;;;;;;;10.54;68.10;94654.19;4969480;28;20320;-60
2022/04/17 07:54:01;;;;;;;7.65;7.05;;;;;;;10.50;68.40;94646.75;4959265;28;20208;-58
2022/04/17 07:56:27;;;;;;;7.13;6.53;;;;;;;10.48;69.09;94643.50;4960859;28;20336;-59
2022/04/17 07:58:52;;;;;;;7.57;6.97;;;;;;;10.64;69.26;94654.06;4967545;28;20287;-60
2022/04/17 08:01:18;;;;;;;7.93;7.15;;;;;;;10.64;68.34;94640.91;4965294;28;20224;-67
2022/04/17 08:06:10;;;;;;;7.63;6.95;;;;;;;10.52;69.19;94644.81;4949544;28;20205;-69
2022/04/17 08:08:42;;;;;;;7.47;6.78;;;;;;;10.34;69.71;94647.53;4961075;28;20242;-70
2022/04/17 08:11:08;;;;;;;6.47;5.97;;;;;;;10.24;70.36;94641.59;4979323;28;20220;-70
2022/04/17 08:13:35;;;;;;;6.97;6.47;;;;;;;10.35;69.89;94643.94;4962129;28;20239;-68
2022/04/17 08:16:02;;;;;;;7.53;6.83;;;;;;;10.67;69.45;94640.56;4975570;28;20305;-64
2022/04/17 08:18:28;;;;;;;6.97;6.45;;;;;;;10.46;68.69;94635.75;4956881;28;20314;-65
2022/04/17 08:20:54;;;;;;;7.10;6.50;;;;;;;10.33;70.23;94638.00;4959076;28;20268;-63
2022/04/17 08:23:19;;;;;;;6.80;6.30;;;;;;;10.52;69.84;94636.91;4969824;28;20216;-62
2022/04/17 08:25:46;;;;;;;7.35;6.75;;;;;;;10.72;69.16;94634.81;4951328;28;20235;-62
2022/04/17 08:28:12;;;;;;;6.87;6.30;;;;;;;10.71;68.12;94641.06;4955692;28;20232;-62
2022/04/17 08:30:38;;;;;;;6.22;5.72;;;;;;;10.65;67.48;94628.56;4951399;28;20236;-62
2022/04/17 08:33:05;;;;;;;7.23;6.03;;;;;;;10.67;67.58;94637.94;4943202;28;20208;-64
2022/04/17 08:35:32;;;;;;;7.50;6.90;;;;;;;10.57;68.96;94635.44;4956214;28;20223;-62
2022/04/17 08:37:59;;;;;;;7.03;6.30;;;;;;;10.75;68.46;94631.88;4962340;28;20227;-62
2022/04/17 08:40:26;;;;;;;7.43;6.67;;;;;;;10.88;68.05;94634.84;4962368;28;20219;-63
2022/04/17 08:42:56;;;;;;;6.13;5.63;;;;;;;10.88;67.78;94624.34;4961278;28;20278;-62
2022/04/17 08:45:23;;;;;;;5.53;5.13;;;;;;;10.87;65.80;94632.38;4955238;28;20373;-62
2022/04/17 08:47:50;;;;;;;5.40;4.93;;;;;;;10.76;67.19;94629.06;4954986;28;20200;-62
2022/04/17 08:50:18;;;;;;;5.90;5.40;;;;;;;10.69;67.84;94637.75;4962341;28;20223;-62
2022/04/17 08:52:49;;;;;;;5.88;5.38;;;;;;;10.58;67.78;94642.38;4959514;28;20223;-62
2022/04/17 08:55:15;;;;;;;6.70;6.10;;;;;;;10.49;67.96;94635.44;4963511;28;20227;-62
2022/04/17 08:57:40;;;;;;;6.60;6.00;;;;;;;10.51;67.66;94641.34;4959202;28;20227;-62
2022/04/17 09:00:13;;;;;;;6.38;5.88;;;;;;;10.40;68.94;94640.81;4964225;28;20334;-62
2022/04/17 09:02:38;;;;;;;7.88;7.18;;;;;;;10.62;69.31;94632.34;4962515;28;20376;-62
2022/04/17 09:05:05;;;;;;;8.50;7.78;;;;;;;10.82;68.68;94624.97;4959381;28;20313;-62
2022/04/17 09:07:51;;;;;;;6.80;6.28;;;;;;;10.81;67.54;94618.88;4962303;28;20294;-63
2022/04/17 09:10:35;;;;;;;7.18;6.15;;;;;;;10.99;67.05;94620.56;4971656;28;20236;-64
2022/04/17 09:13:02;;;;;;;7.10;5.80;;;;;;;11.04;66.67;94619.06;4967114;28;20216;-62
2022/04/17 09:15:36;;;;;;;6.25;5.65;;;;;;;11.05;67.00;94619.91;4972409;28;20200;-60
2022/04/17 09:18:05;;;;;;;5.45;5.05;;;;;;;10.88;65.82;94613.81;4979690;28;20200;-61
2022/04/17 09:20:31;;;;;;;6.45;5.95;;;;;;;11.16;66.30;94618.75;4972753;28;20224;-63
2022/04/17 09:23:01;;;;;;;6.30;5.70;;;;;;;11.17;65.81;94618.59;4962411;28;20223;-62
2022/04/17 09:25:28;;;;;;;5.93;5.43;;;;;;;11.27;65.92;94613.13;4965148;28;20244;-61
2022/04/17 09:28:07;;;;;;;6.47;5.50;;;;;;;11.49;66.08;94606.34;4978639;28;20244;-62
2022/04/17 09:30:34;;;;;;;5.53;5.13;;;;;;;11.45;66.45;94603.25;4956896;28;20243;-63
2022/04/17 09:33:05;;;;;;;5.53;5.03;;;;;;;11.39;65.18;94600.47;4977310;28;20303;-60
2022/04/17 09:35:31;;;;;;;6.05;5.47;;;;;;;11.29;66.08;94595.38;4954062;28;20233;-60
2022/04/17 09:37:58;;;;;;;5.83;5.33;;;;;;;11.47;65.85;94589.94;4942290;28;20237;-60
2022/04/17 09:40:25;;;;;;;4.97;4.55;;;;;;;11.49;64.80;94580.03;4953192;28;20915;-60
2022/04/17 09:43:07;;;;;;;5.50;5.00;;;;;;;11.40;64.85;94570.53;4952992;28;20232;-59
2022/04/17 09:45:33;;;;;;;5.68;5.20;;;;;;;11.44;65.26;94577.06;4959606;28;20246;-60
2022/04/17 09:47:58;;;;;;;5.10;4.70;;;;;;;11.58;65.60;94576.41;4958207;28;20204;-60
2022/04/17 09:50:34;;;;;;;4.47;4.07;;;;;;;11.48;65.79;94573.13;4962828;28;20235;-60
2022/04/17 09:53:05;;;;;;;4.35;4.03;;;;;;;11.46;64.78;94575.91;4979642;28;20220;-59
2022/04/17 09:55:31;;;;;;;4.43;4.03;;;;;;;11.49;65.12;94574.75;4979375;28;20231;-60
2022/04/17 09:57:58;;;;;;;4.82;4.43;;;;;;;11.63;65.17;94570.66;4963300;28;20263;-60
2022/04/17 10:00:25;;;;;;;4.85;4.45;;;;;;;11.41;65.04;94570.38;4962168;28;20227;-60
2022/04/17 10:02:51;;;;;;;4.43;4.13;;;;;;;11.34;65.37;94572.00;4970403;28;20300;-60
2022/04/17 10:05:21;;;;;;;4.50;4.15;;;;;;;11.25;65.79;94575.63;4970625;28;20314;-60
2022/04/17 10:07:48;;;;;;;4.63;4.22;;;;;;;11.26;65.95;94564.94;4966356;28;20237;-62
2022/04/17 10:10:15;;;;;;;3.97;3.60;;;;;;;11.29;65.52;94563.78;4956581;28;20240;-61
2022/04/17 10:12:43;;;;;;;3.83;3.53;;;;;;;11.32;64.27;94562.63;4969914;28;20239;-61
2022/04/17 10:15:11;;;;;;;4.35;4.00;;;;;;;11.24;64.51;94556.41;4962776;28;20200;-60
2022/04/17 10:17:42;;;;;;;4.50;4.10;;;;;;;11.36;66.36;94559.50;4967280;28;20318;-60
2022/04/17 10:20:11;;;;;;;8.05;7.35;;;;;;;11.55;66.02;94554.88;4960239;28;20231;-59
2022/04/17 10:22:38;;;;;;;5.15;4.75;;;;;;;11.53;65.55;94554.22;4968694;28;20266;-64
2022/04/17 10:25:06;;;;;;;3.83;3.53;;;;;;;11.43;65.64;94551.75;4966357;28;20224;-63
2022/04/17 10:27:54;;;;;;;3.65;3.30;;;;;;;11.59;62.71;94548.25;4963129;28;20243;-64
2022/04/17 10:30:26;;;;;;;4.05;3.75;;;;;;;11.58;65.25;94552.72;4959892;28;20279;-62
2022/04/17 10:33:18;;;;;;;4.85;4.35;;;;;;;11.62;65.28;94553.19;4973731;28;20348;-59
2022/04/17 10:35:56;;;;;;;4.78;4.32;;;;;;;11.45;67.29;94555.03;4962824;28;20239;-58
2022/04/17 10:39:02;;;;;;;5.65;3.80;;;;;;;11.43;67.94;94555.19;4978456;28;20224;-59
2022/04/17 10:41:27;;;;;;;2.80;2.45;;;;;;;11.55;66.52;94541.69;4973691;28;20276;-59
2022/04/17 10:43:57;;;;;;;1.92;1.80;;;;;;;11.51;65.02;94540.38;4959811;28;20350;-58
2022/04/17 10:46:23;;;;;;;1.75;1.65;;;;;;;11.48;65.83;94533.66;4959144;28;20252;-60
2022/04/17 10:49:00;;;;;;;3.40;2.00;;;;;;;11.55;65.93;94539.06;4956694;28;20220;-59
2022/04/17 10:51:30;;;;;;;2.22;2.03;;;;;;;11.61;66.24;94538.38;4977280;28;20302;-59
2022/04/17 10:54:04;;;;;;;1.83;1.73;;;;;;;11.66;64.81;94534.25;4956243;28;20218;-58
2022/04/17 10:56:34;;;;;;;2.65;1.63;;;;;;;11.65;64.78;94534.41;4974514;28;20238;-65
2022/04/17 10:59:05;;;;;;;1.88;1.67;;;;;;;11.51;64.65;94529.84;4965069;28;20231;-61
2022/04/17 11:01:43;;;;;;;3.45;1.52;;;;;;;11.54;64.01;94527.69;4957091;28;20232;-64
2022/04/17 11:04:25;;;;;;;1.52;1.35;;;;;;;11.61;63.94;94523.41;4964016;28;20513;-68
2022/04/17 11:06:54;;;;;;;1.60;1.35;;;;;;;11.63;63.69;94523.25;4974507;28;20307;-69
2022/04/17 11:09:21;;;;;;;2.60;2.00;;;;;;;11.67;64.02;94524.53;4957967;28;20220;-62
2022/04/17 11:11:47;;;;;;;1.63;1.50;;;;;;;11.74;63.05;94525.50;4956975;28;20243;-70
2022/04/17 11:14:23;;;;;;;1.80;1.45;;;;;;;11.69;63.91;94522.56;4962028;28;20223;-68
2022/04/17 11:16:52;;;;;;;2.42;1.60;;;;;;;11.53;63.67;94522.63;4958050;28;20234;-60
2022/04/17 11:19:21;;;;;;;1.65;1.55;;;;;;;11.47;64.24;94524.13;4963547;28;20219;-60
2022/04/17 11:21:50;;;;;;;2.42;1.73;;;;;;;11.49;63.57;94519.47;4958673;28;20228;-61
2022/04/17 11:24:16;;;;;;;2.13;1.83;;;;;;;11.42;62.93;94526.44;4945927;28;20201;-60
2022/04/17 11:26:53;;;;;;;2.25;1.30;;;;;;;11.45;63.10;94533.97;4962503;28;20210;-60
2022/04/17 11:29:35;;;;;;;2.17;1.50;;;;;;;11.30;64.29;94536.47;4975778;28;20275;-61
2022/04/17 11:32:02;;;;;;;1.63;1.52;;;;;;;11.32;63.22;94537.13;4966760;28;20228;-63
2022/04/17 11:35:00;;;;;;;2.33;1.77;;;;;;;11.22;63.76;94539.13;4965039;28;20239;-64
2022/04/17 11:37:28;;;;;;;1.88;1.70;;;;;;;11.16;64.24;94539.81;4949614;28;20286;-63
2022/04/17 11:39:56;;;;;;;1.23;1.02;;;;;;;11.23;63.26;94532.88;4961551;28;20254;-63
2022/04/17 11:42:21;;;;;;;1.20;1.10;;;;;;;11.26;64.76;94537.81;4963933;28;20207;-65
2022/04/17 11:44:49;;;;;;;1.75;1.48;;;;;;;11.34;63.52;94529.09;4961838;28;20208;-63
2022/04/17 11:47:20;;;;;;;2.20;1.77;;;;;;;11.35;62.19;94531.53;4976632;28;20299;-64
2022/04/17 11:49:47;;;;;;;2.10;1.77;;;;;;;11.31;61.78;94532.88;4975311;28;20242;-63